Airfield :
LOGIN :

Register | Disclaimer

   EN    FR    IT 

 










Legend :    VFR   Marginal VFR   IFR   Intensive IFR   Very Intensive IFR
Visi :
Ceiling :
>= 8 km
>= 3000ft
5 to 8 km
1000 to 3000 ft
1500m to 5 km
500 to 1000 ft
800 to 1500m
200 to 500 ft
< 800m
< 200 ft
Symbols :   Thunderstorms  Fog  Heavy snow  Heavy precipitations  Wind > 20 kt
SIGMETs :     Misc.  Thunderstorms  Icing  Turbulence  Mountain Waves  Volcanic Ashes







- Airport Elevation : 614 ft
- IATA code : CRL


EBCI - Charleroi

CURRENT METAR :
  • 222150Z 20007KT 9999 TS SCT045CB 17/11 Q1013 NOSIG

EXPIRED METARs :
  • 222120Z 26007KT 230V300 9999 -SHRA SCT045 17/11 Q1013 TEMPO 4000 SHRA
  • 222050Z 26008KT 230V300 9999 SCT045 19/11 Q1013 TEMPO 4000 SHRA
  • 222020Z 25008KT 230V300 9999 FEW045 19/11 Q1012 TEMPO 4000 SHRA
  • 221950Z 21005KT 9999 FEW045 20/10 Q1012 NOSIG
  • 221920Z 22006KT 9999 FEW045 21/10 Q1011 NOSIG

TAF TAF EBCI
Valid from the 22 at 18:00 until the 24 at 00:00 UTC


221700Z 2218/2324 24008KT 9999 FEW045CB
PROB30
TEMPO 2218/2224 VRB15G25KT 4000 SHRA -TSRA
PROB40
TEMPO 2303/2307 SCT008 BKN011
No reported NOTAMs for that airfield.



MET'MAP, your aeronautical weather chart ! - Copyright ORBIFLY December 2007 - Disclaimer

ORBIFLY MET'MAP TEAM :

Programming & Development : Alexandra Zaïnal
Concept & Development : Baudouin d'Aumeries
Co-Development & Prog : Marc-Olivier Méhu
Technical & hardware support : Manuel Goepfert

Contact : metmap@orbifly.com




SOURCES & CREDITS :

   NOAA